createdAt,value
2019-02-04T00:01:00.250Z,-4.50
2019-02-04T00:03:29.219Z,-4.50
2019-02-04T00:05:58.119Z,-4.50
2019-02-04T00:08:27.194Z,-4.50
2019-02-04T00:10:56.067Z,-4.60
2019-02-04T00:13:24.867Z,-4.60
2019-02-04T00:15:53.817Z,-4.60
2019-02-04T00:18:22.813Z,-4.40
2019-02-04T00:20:51.944Z,-4.20
2019-02-04T00:23:21.068Z,-3.90
2019-02-04T00:25:49.868Z,-3.60
2019-02-04T00:28:19.044Z,-3.40
2019-02-04T00:30:47.936Z,-3.30
2019-02-04T00:33:16.852Z,-3.00
2019-02-04T00:35:46.208Z,-2.80
2019-02-04T00:38:15.192Z,-2.70
2019-02-04T00:40:43.995Z,-2.60
2019-02-04T00:43:12.923Z,-2.50
2019-02-04T00:45:41.967Z,-2.40
2019-02-04T00:48:10.911Z,-2.30
2019-02-04T00:50:39.786Z,-2.20
2019-02-04T00:53:09.127Z,-2.00
2019-02-04T00:55:37.942Z,-2.00
2019-02-04T00:58:07.151Z,-1.90
2019-02-04T01:00:36.064Z,-1.90
2019-02-04T01:03:06.048Z,-1.80
2019-02-04T01:05:35.048Z,-1.70
2019-02-04T01:08:04.695Z,-1.60
2019-02-04T01:10:33.679Z,-1.60
2019-02-04T01:13:02.480Z,-1.50
2019-02-04T01:15:31.343Z,-1.40
2019-02-04T01:18:00.215Z,-1.40
2019-02-04T01:20:29.624Z,-1.30
2019-02-04T01:22:58.911Z,-1.30
2019-02-04T01:25:27.996Z,-1.30
2019-02-04T01:27:56.855Z,-1.20
2019-02-04T01:30:26.296Z,-1.20
2019-02-04T01:32:55.263Z,-1.10
2019-02-04T01:35:24.283Z,-1.10
2019-02-04T01:37:53.268Z,-1.00
2019-02-04T01:40:24.084Z,-1.00
2019-02-04T01:42:53.457Z,-0.90
2019-02-04T01:45:22.548Z,-0.90
2019-02-04T01:47:51.337Z,-0.90
2019-02-04T01:50:21.819Z,-0.80
2019-02-04T01:52:50.849Z,-0.80
2019-02-04T01:55:20.015Z,-0.80
2019-02-04T01:57:54.189Z,-0.70
2019-02-04T02:00:28.340Z,-0.70
2019-02-04T02:02:57.557Z,-0.70
2019-02-04T02:05:26.455Z,-0.60
2019-02-04T02:07:55.582Z,-0.50
2019-02-04T02:10:25.038Z,-0.50
2019-02-04T02:12:54.181Z,-0.40
2019-02-04T02:15:23.127Z,-0.40
2019-02-04T02:17:52.491Z,-0.40
2019-02-04T02:20:24.562Z,-0.40
2019-02-04T02:22:53.483Z,-0.40
2019-02-04T02:25:22.449Z,-0.40
2019-02-04T02:27:51.498Z,-0.40
2019-02-04T02:30:28.798Z,-0.30
2019-02-04T02:32:57.575Z,-0.30
2019-02-04T02:35:26.538Z,-0.30
2019-02-04T02:37:55.385Z,-0.30
2019-02-04T02:40:33.853Z,-0.50
2019-02-04T02:43:03.023Z,-0.50
2019-02-04T02:45:31.904Z,-0.60
2019-02-04T02:48:00.850Z,-0.70
2019-02-04T02:50:30.201Z,-0.80
2019-02-04T02:52:59.175Z,-0.80
2019-02-04T02:55:27.976Z,-0.80
2019-02-04T02:57:57.141Z,-0.70
2019-02-04T03:00:27.698Z,-0.70
2019-02-04T03:02:56.534Z,-0.70
2019-02-04T03:05:25.659Z,-0.70
2019-02-04T03:07:54.595Z,-0.70
2019-02-04T03:10:25.715Z,-0.60
2019-02-04T03:12:54.842Z,-0.70
2019-02-04T03:15:23.835Z,-0.70
2019-02-04T03:17:53.035Z,-0.70
2019-02-04T03:20:22.131Z,-0.70
2019-02-04T03:22:51.176Z,-0.70
2019-02-04T03:25:20.050Z,-0.70
2019-02-04T03:27:48.876Z,-0.80
2019-02-04T03:30:32.460Z,-0.90
2019-02-04T03:33:01.405Z,-1.10
2019-02-04T03:35:30.311Z,-1.20
2019-02-04T03:37:59.641Z,-1.30
2019-02-04T03:40:30.554Z,-1.40
2019-02-04T03:42:59.489Z,-1.60
2019-02-04T03:45:28.372Z,-1.70
2019-02-04T03:48:05.100Z,-1.90
2019-02-04T03:50:27.999Z,-2.10
2019-02-04T03:52:57.035Z,-2.20
2019-02-04T03:55:25.969Z,-2.30
2019-02-04T03:57:54.914Z,-2.40
2019-02-04T04:00:28.619Z,-2.50
2019-02-04T04:02:57.639Z,-2.70
2019-02-04T04:05:26.787Z,-2.80
2019-02-04T04:07:55.810Z,-3.00
2019-02-04T04:10:24.677Z,-3.10
2019-02-04T04:12:53.529Z,-3.20
2019-02-04T04:15:22.386Z,-3.40
2019-02-04T04:17:51.845Z,-3.50
2019-02-04T04:20:21.079Z,-3.60
2019-02-04T04:22:50.048Z,-3.70
2019-02-04T04:25:19.014Z,-3.80
2019-02-04T04:27:47.990Z,-3.90
2019-02-04T04:30:25.314Z,-4.00
2019-02-04T04:32:54.661Z,-4.10
2019-02-04T04:35:23.646Z,-4.20
2019-02-04T04:37:53.173Z,-4.20
2019-02-04T04:40:22.205Z,-4.30
2019-02-04T04:42:51.063Z,-4.40
2019-02-04T04:45:21.454Z,-4.50
2019-02-04T04:47:50.800Z,-4.50
2019-02-04T04:50:19.737Z,-4.60
2019-02-04T04:52:48.674Z,-4.70
2019-02-04T04:55:20.554Z,-4.70
2019-02-04T04:57:49.474Z,-4.80
2019-02-04T05:00:21.200Z,-4.80
2019-02-04T05:02:50.270Z,-4.90
2019-02-04T05:05:19.135Z,-4.90
2019-02-04T05:07:48.072Z,-5.00
2019-02-04T05:10:17.848Z,-5.00
2019-02-04T05:12:46.923Z,-5.10
2019-02-04T05:15:20.788Z,-5.10
2019-02-04T05:17:52.427Z,-5.20
2019-02-04T05:20:20.504Z,-5.20
2019-02-04T05:22:49.421Z,-5.20
2019-02-04T05:25:18.654Z,-5.30
2019-02-04T05:27:47.533Z,-5.30
2019-02-04T05:30:18.294Z,-5.30
2019-02-04T05:32:47.196Z,-5.30
2019-02-04T05:35:16.322Z,-5.40
2019-02-04T05:37:45.346Z,-5.40
2019-02-04T05:40:15.142Z,-5.50
2019-02-04T05:42:44.312Z,-5.50
2019-02-04T05:45:14.536Z,-5.50
2019-02-04T05:47:43.337Z,-5.60
2019-02-04T05:50:14.027Z,-5.60
2019-02-04T05:52:42.824Z,-5.60
2019-02-04T05:55:12.270Z,-5.70
2019-02-04T05:57:41.711Z,-5.70
2019-02-04T06:00:17.332Z,-5.70
2019-02-04T06:02:46.140Z,-5.70
2019-02-04T06:05:15.519Z,-5.70
2019-02-04T06:07:44.404Z,-5.80
2019-02-04T06:10:13.352Z,-5.80
2019-02-04T06:12:42.291Z,-5.90
2019-02-04T06:15:11.398Z,-5.90
2019-02-04T06:17:40.608Z,-5.90
2019-02-04T06:20:12.125Z,-5.90
2019-02-04T06:22:40.915Z,-6.00
2019-02-04T06:25:10.459Z,-5.90
2019-02-04T06:27:39.320Z,-5.80
2019-02-04T06:30:08.944Z,-5.60
2019-02-04T06:32:37.752Z,-5.40
2019-02-04T06:35:06.818Z,-5.30
2019-02-04T06:37:35.715Z,-5.10
2019-02-04T06:40:05.875Z,-4.90
2019-02-04T06:42:34.865Z,-4.70
2019-02-04T06:45:03.988Z,-4.60
2019-02-04T06:47:32.790Z,-4.40
2019-02-04T06:50:01.568Z,-4.40
2019-02-04T06:52:30.624Z,-4.20
2019-02-04T06:54:59.678Z,-4.10
2019-02-04T06:57:28.721Z,-4.00
2019-02-04T06:59:57.517Z,-3.90
2019-02-04T07:02:26.563Z,-3.80
2019-02-04T07:04:55.359Z,-3.80
2019-02-04T07:07:24.134Z,-3.70
2019-02-04T07:09:53.378Z,-3.50
2019-02-04T07:12:22.508Z,-3.40
2019-02-04T07:14:51.285Z,-3.40
2019-02-04T07:17:21.029Z,-3.30
2019-02-04T07:19:49.781Z,-3.20
2019-02-04T07:22:18.575Z,-3.20
2019-02-04T07:24:49.243Z,-3.20
2019-02-04T07:27:18.023Z,-3.10
2019-02-04T07:29:46.806Z,-3.10
2019-02-04T07:32:15.668Z,-3.10
2019-02-04T07:34:44.476Z,-3.00
2019-02-04T07:37:13.258Z,-3.00
2019-02-04T07:39:42.151Z,-3.00
2019-02-04T07:42:11.622Z,-2.90
2019-02-04T07:44:40.475Z,-2.80
2019-02-04T07:47:09.602Z,-2.70
2019-02-04T07:49:38.498Z,-2.50
2019-02-04T07:52:07.351Z,-2.40
2019-02-04T07:54:36.152Z,-2.30
2019-02-04T07:57:05.007Z,-2.20
2019-02-04T07:59:33.855Z,-2.20
2019-02-04T08:02:02.704Z,-2.10
2019-02-04T08:04:31.486Z,-2.00
2019-02-04T08:07:00.309Z,-2.00
2019-02-04T08:09:29.159Z,-1.80
2019-02-04T08:11:58.268Z,-1.70
2019-02-04T08:14:27.140Z,-1.60
2019-02-04T08:16:56.475Z,-1.50
2019-02-04T08:19:25.365Z,-1.40
2019-02-04T08:21:54.203Z,-1.30
2019-02-04T08:24:23.004Z,-1.30
2019-02-04T08:26:51.793Z,-1.20
2019-02-04T08:29:20.679Z,-1.30
2019-02-04T08:31:49.595Z,-1.30
2019-02-04T08:34:18.570Z,-1.40
2019-02-04T08:36:47.704Z,-1.40
2019-02-04T08:39:16.499Z,-1.30
2019-02-04T08:41:45.661Z,-1.30
2019-02-04T08:44:14.853Z,-1.30
2019-02-04T08:46:44.046Z,-1.30
2019-02-04T08:49:13.452Z,-1.30
2019-02-04T08:51:42.239Z,-1.30
2019-02-04T08:54:11.110Z,-1.30
2019-02-04T08:56:42.846Z,-1.30
2019-02-04T08:59:10.498Z,-1.30
2019-02-04T09:01:39.583Z,-1.30
2019-02-04T09:04:08.455Z,-1.20
2019-02-04T09:06:37.316Z,-1.20
2019-02-04T09:09:09.028Z,-1.10
2019-02-04T09:11:37.921Z,-1.20
2019-02-04T09:14:07.131Z,-1.10
2019-02-04T09:16:35.982Z,-1.00
2019-02-04T09:19:05.231Z,-0.90
2019-02-04T09:21:34.008Z,-0.80
2019-02-04T09:24:03.347Z,-0.70
2019-02-04T09:26:32.142Z,-0.70
2019-02-04T09:29:01.268Z,-0.50
2019-02-04T09:31:30.219Z,-0.40
2019-02-04T09:33:59.065Z,-0.30
2019-02-04T09:36:28.002Z,-0.20
2019-02-04T09:38:57.035Z,-0.10
2019-02-04T09:41:25.924Z,0.00
2019-02-04T09:43:55.078Z,0.00
2019-02-04T09:46:23.883Z,0.10
2019-02-04T09:48:52.745Z,0.10
2019-02-04T09:51:21.520Z,0.10
2019-02-04T09:53:50.540Z,0.10
2019-02-04T09:56:19.405Z,0.10
2019-02-04T09:58:48.188Z,0.20
2019-02-04T10:01:16.975Z,0.20
2019-02-04T10:03:45.828Z,0.40
2019-02-04T10:06:14.921Z,0.40
2019-02-04T10:08:43.766Z,0.40
2019-02-04T10:11:12.703Z,0.60
2019-02-04T10:13:41.555Z,1.50
2019-02-04T10:16:11.678Z,2.40
2019-02-04T10:18:40.623Z,3.20
2019-02-04T10:21:09.610Z,3.70
2019-02-04T10:23:38.467Z,4.20
2019-02-04T10:26:07.332Z,4.60
2019-02-04T10:28:36.370Z,4.70
2019-02-04T10:31:05.337Z,5.00
2019-02-04T10:33:34.309Z,5.40
2019-02-04T10:36:03.106Z,5.40
2019-02-04T10:38:31.955Z,5.60
2019-02-04T10:41:00.900Z,6.10
2019-02-04T10:43:29.804Z,6.50
2019-02-04T10:45:58.743Z,6.30
2019-02-04T10:48:27.681Z,6.60
2019-02-04T10:50:56.529Z,6.30
2019-02-04T10:53:25.380Z,6.20
2019-02-04T10:55:54.226Z,6.00
2019-02-04T10:58:23.244Z,6.20
2019-02-04T11:00:52.309Z,6.10
2019-02-04T11:03:21.279Z,6.00
2019-02-04T11:05:50.220Z,6.30
2019-02-04T11:08:19.049Z,6.40
2019-02-04T11:10:47.932Z,5.90
2019-02-04T11:13:17.508Z,5.80
2019-02-04T11:15:47.554Z,6.00
2019-02-04T11:18:16.694Z,6.10
2019-02-04T11:20:57.107Z,6.30
2019-02-04T11:23:16.612Z,6.20
2019-02-04T11:25:45.920Z,6.20
2019-02-04T11:28:15.093Z,6.40
2019-02-04T11:30:52.426Z,6.40
2019-02-04T11:33:21.655Z,6.30
2019-02-04T11:35:50.660Z,6.10
2019-02-04T11:38:19.460Z,6.30
2019-02-04T11:40:48.505Z,6.30
2019-02-04T11:43:17.722Z,6.20
2019-02-04T11:45:47.083Z,6.00
2019-02-04T11:48:16.250Z,6.10
2019-02-04T11:50:45.162Z,6.30
2019-02-04T11:53:13.940Z,6.30
2019-02-04T11:55:43.095Z,6.10
2019-02-04T11:58:12.315Z,6.00
2019-02-04T12:00:41.251Z,5.70
2019-02-04T12:03:11.926Z,5.70
2019-02-04T12:05:40.857Z,5.80
2019-02-04T12:08:10.015Z,6.00
2019-02-04T12:10:41.963Z,6.10
2019-02-04T12:13:11.120Z,6.40
2019-02-04T12:15:40.327Z,6.20
2019-02-04T12:18:09.374Z,5.90
2019-02-04T12:20:39.922Z,6.00
2019-02-04T12:23:09.060Z,6.00
2019-02-04T12:25:38.310Z,6.00
2019-02-04T12:28:07.242Z,6.20
2019-02-04T12:30:38.155Z,6.00
2019-02-04T12:33:08.647Z,6.00
2019-02-04T12:35:37.443Z,6.60
2019-02-04T12:38:06.505Z,6.70
2019-02-04T12:40:35.978Z,7.10
2019-02-04T12:43:05.077Z,7.10
2019-02-04T12:45:34.851Z,7.30
2019-02-04T12:48:04.208Z,7.10
2019-02-04T12:50:33.238Z,7.10
2019-02-04T12:53:02.544Z,6.90
2019-02-04T12:55:32.236Z,6.70
2019-02-04T12:58:01.197Z,6.40
2019-02-04T13:00:30.241Z,6.40
2019-02-04T13:02:59.425Z,6.30
2019-02-04T13:05:33.552Z,6.20
2019-02-04T13:08:02.407Z,5.70
2019-02-04T13:10:31.322Z,5.60
2019-02-04T13:13:00.266Z,5.60
2019-02-04T13:15:29.447Z,5.40
2019-02-04T13:17:58.315Z,5.40
2019-02-04T13:20:27.499Z,5.30
2019-02-04T13:22:56.548Z,5.40
2019-02-04T13:25:27.086Z,5.30
2019-02-04T13:27:55.996Z,5.20
2019-02-04T13:30:25.574Z,5.00
2019-02-04T13:32:54.500Z,4.80
2019-02-04T13:35:23.887Z,5.10
2019-02-04T13:37:53.379Z,5.40
2019-02-04T13:40:26.703Z,5.70
2019-02-04T13:42:55.663Z,6.00
2019-02-04T13:45:24.895Z,6.10
2019-02-04T13:47:53.864Z,6.00
2019-02-04T13:50:23.141Z,5.80
2019-02-04T13:52:52.996Z,5.60
2019-02-04T13:55:25.249Z,5.30
2019-02-04T13:57:54.124Z,5.20
2019-02-04T14:00:26.946Z,5.00
2019-02-04T14:02:59.274Z,4.80
2019-02-04T14:05:26.100Z,4.80
2019-02-04T14:07:55.031Z,4.60
2019-02-04T14:10:25.999Z,4.40
2019-02-04T14:12:55.030Z,4.40
2019-02-04T14:15:23.875Z,4.40
2019-02-04T14:17:52.799Z,4.40
2019-02-04T14:20:22.235Z,4.40
2019-02-04T14:22:53.405Z,4.30
2019-02-04T14:25:22.979Z,4.20
2019-02-04T14:27:52.078Z,4.30
2019-02-04T14:30:24.191Z,4.20
2019-02-04T14:32:53.425Z,4.20
2019-02-04T14:35:22.288Z,4.10
2019-02-04T14:37:51.515Z,4.20
2019-02-04T14:40:20.485Z,4.20
2019-02-04T14:42:55.331Z,4.20
2019-02-04T14:45:30.583Z,4.10
2019-02-04T14:48:29.963Z,4.00
2019-02-04T14:51:41.542Z,3.90
2019-02-04T14:54:58.432Z,3.90
2019-02-04T14:57:58.107Z,3.70
2019-02-04T15:01:12.719Z,3.50
2019-02-04T15:03:54.403Z,3.30
2019-02-04T15:07:14.072Z,3.30
2019-02-04T15:10:07.475Z,3.20
2019-02-04T15:13:01.255Z,3.20
2019-02-04T15:15:52.163Z,3.20
2019-02-04T15:19:09.719Z,3.10
2019-02-04T15:22:32.803Z,3.10
2019-02-04T15:25:21.606Z,2.90
2019-02-04T15:28:21.650Z,2.90
2019-02-04T15:31:16.500Z,2.80
2019-02-04T15:34:03.267Z,2.70
2019-02-04T15:37:12.117Z,2.70
2019-02-04T15:40:12.521Z,2.60
2019-02-04T15:43:28.414Z,2.40
2019-02-04T15:46:20.824Z,2.30
2019-02-04T15:49:29.606Z,2.30
2019-02-04T15:51:59.832Z,2.30
2019-02-04T15:54:29.040Z,2.20
2019-02-04T15:56:57.989Z,2.10
2019-02-04T15:59:26.860Z,2.00
2019-02-04T16:01:56.322Z,1.90
2019-02-04T16:04:29.693Z,1.80
2019-02-04T16:06:58.475Z,1.70
2019-02-04T16:09:27.471Z,1.70
2019-02-04T16:11:56.318Z,1.70
2019-02-04T16:14:25.260Z,1.70
2019-02-04T16:16:54.487Z,1.60
2019-02-04T16:19:23.435Z,1.60
2019-02-04T16:21:52.473Z,1.50
2019-02-04T16:24:21.843Z,1.50
2019-02-04T16:26:50.614Z,1.50
2019-02-04T16:29:19.483Z,1.50
2019-02-04T16:31:48.669Z,1.40
2019-02-04T16:34:17.715Z,1.40
2019-02-04T16:36:46.570Z,1.40
2019-02-04T16:39:15.443Z,1.40
2019-02-04T16:41:44.286Z,1.30
2019-02-04T16:44:13.384Z,1.30
2019-02-04T16:46:42.597Z,1.30
2019-02-04T16:49:11.385Z,1.20
2019-02-04T16:51:40.247Z,1.20
2019-02-04T16:54:09.052Z,1.20
2019-02-04T16:56:37.911Z,1.20
2019-02-04T16:59:06.974Z,1.20
2019-02-04T17:01:36.463Z,1.20
2019-02-04T17:04:05.411Z,1.20
2019-02-04T17:06:34.267Z,1.20
2019-02-04T17:09:04.310Z,1.20
2019-02-04T17:11:33.242Z,1.20
2019-02-04T17:14:02.047Z,1.20
2019-02-04T17:16:31.083Z,1.20
2019-02-04T17:18:59.876Z,1.20
2019-02-04T17:21:28.749Z,1.20
2019-02-04T17:23:57.537Z,1.10
2019-02-04T17:26:26.315Z,1.10
2019-02-04T17:28:55.143Z,1.00
2019-02-04T17:31:24.001Z,0.90
2019-02-04T17:33:52.878Z,0.90
2019-02-04T17:36:21.983Z,0.90
2019-02-04T17:38:50.782Z,0.90
2019-02-04T17:41:19.759Z,0.90
2019-02-04T17:43:48.891Z,1.00
2019-02-04T17:46:17.837Z,1.00
2019-02-04T17:48:46.750Z,1.00
2019-02-04T17:51:15.543Z,1.00
2019-02-04T17:53:44.323Z,1.10
2019-02-04T17:56:13.249Z,1.00
2019-02-04T17:58:42.033Z,0.90
2019-02-04T18:01:10.904Z,0.80
2019-02-04T18:03:40.156Z,0.70
2019-02-04T18:06:09.143Z,0.60
2019-02-04T18:08:38.211Z,0.50
2019-02-04T18:11:07.152Z,0.50
2019-02-04T18:13:35.910Z,0.60
2019-02-04T18:16:05.254Z,0.60
2019-02-04T18:18:34.443Z,0.70
2019-02-04T18:21:03.636Z,0.70
2019-02-04T18:23:32.494Z,0.70
2019-02-04T18:26:01.284Z,0.60
2019-02-04T18:28:30.062Z,0.50
2019-02-04T18:30:58.848Z,0.40
2019-02-04T18:33:27.627Z,0.40
2019-02-04T18:35:56.564Z,0.40
2019-02-04T18:38:25.397Z,0.50
2019-02-04T18:40:54.551Z,0.50
2019-02-04T18:43:23.399Z,0.50
2019-02-04T18:45:52.202Z,0.60
2019-02-04T18:48:21.140Z,0.70
2019-02-04T18:50:49.939Z,0.90
2019-02-04T18:53:18.697Z,1.00
2019-02-04T18:55:47.584Z,1.20
2019-02-04T18:58:16.433Z,1.30
2019-02-04T19:00:45.611Z,1.40
2019-02-04T19:03:17.413Z,1.40
2019-02-04T19:05:45.058Z,1.40
2019-02-04T19:08:14.228Z,1.50
2019-02-04T19:10:43.087Z,1.50
2019-02-04T19:13:11.939Z,1.60
2019-02-04T19:15:41.184Z,1.60
2019-02-04T19:18:12.609Z,1.70
2019-02-04T19:20:41.403Z,1.70
2019-02-04T19:23:10.245Z,1.70
2019-02-04T19:25:39.187Z,1.70
2019-02-04T19:28:08.119Z,1.70
2019-02-04T19:30:46.444Z,1.70
2019-02-04T19:33:15.848Z,1.80
2019-02-04T19:35:44.740Z,1.80
2019-02-04T19:38:13.896Z,1.80
2019-02-04T19:40:42.771Z,1.80
2019-02-04T19:43:11.944Z,1.80
2019-02-04T19:45:40.809Z,1.80
2019-02-04T19:48:10.096Z,1.80
2019-02-04T19:50:39.156Z,1.80
2019-02-04T19:53:08.272Z,1.90
2019-02-04T19:55:37.168Z,1.90
2019-02-04T19:58:06.508Z,1.90
2019-02-04T20:00:35.546Z,1.80
2019-02-04T20:03:04.845Z,1.80
2019-02-04T20:05:33.907Z,1.80
2019-02-04T20:08:02.842Z,1.80
2019-02-04T20:10:33.563Z,1.80
2019-02-04T20:13:02.657Z,1.80
2019-02-04T20:15:31.824Z,1.80
2019-02-04T20:18:00.827Z,1.80
2019-02-04T20:20:30.160Z,1.80
2019-02-04T20:22:59.345Z,1.70
2019-02-04T20:25:29.402Z,1.70
2019-02-04T20:27:58.440Z,1.70
2019-02-04T20:30:44.678Z,1.70
2019-02-04T20:33:02.882Z,1.70
2019-02-04T20:35:31.871Z,1.70
2019-02-04T20:38:00.815Z,1.70
2019-02-04T20:40:29.748Z,1.70
2019-02-04T20:42:58.707Z,1.70
2019-02-04T20:45:27.710Z,1.70
2019-02-04T20:47:56.585Z,1.70
2019-02-04T20:50:30.604Z,1.70
2019-02-04T20:52:59.598Z,1.70
2019-02-04T20:55:28.685Z,1.70
2019-02-04T20:57:58.038Z,1.70
2019-02-04T21:00:28.402Z,1.80
2019-02-04T21:02:57.351Z,1.80
2019-02-04T21:05:26.190Z,1.80
2019-02-04T21:07:55.063Z,1.80
2019-02-04T21:10:24.399Z,1.80
2019-02-04T21:12:53.654Z,1.70
2019-02-04T21:15:22.755Z,1.70
2019-02-04T21:17:51.731Z,1.60
2019-02-04T21:20:22.177Z,1.70
2019-02-04T21:22:50.994Z,1.70
2019-02-04T21:25:19.907Z,1.70
2019-02-04T21:27:49.132Z,1.70
2019-02-04T21:30:20.884Z,1.70
2019-02-04T21:32:49.866Z,1.70
2019-02-04T21:35:19.315Z,1.70
2019-02-04T21:37:48.255Z,1.70
2019-02-04T21:40:17.406Z,1.70
2019-02-04T21:42:46.595Z,1.70
2019-02-04T21:45:17.194Z,1.80
2019-02-04T21:47:45.998Z,1.80
2019-02-04T21:50:17.471Z,1.80
2019-02-04T21:52:46.419Z,1.80
2019-02-04T21:55:15.486Z,1.80
2019-02-04T21:57:45.897Z,1.90
2019-02-04T22:00:22.971Z,1.90
2019-02-04T22:02:51.913Z,1.90
2019-02-04T22:05:22.223Z,1.90
2019-02-04T22:07:51.172Z,2.00
2019-02-04T22:10:21.942Z,1.90
2019-02-04T22:12:50.810Z,1.90
2019-02-04T22:15:19.673Z,1.90
2019-02-04T22:17:48.595Z,2.00
2019-02-04T22:20:18.117Z,1.90
2019-02-04T22:22:47.072Z,1.90
2019-02-04T22:25:19.797Z,1.90
2019-02-04T22:27:47.758Z,1.90
2019-02-04T22:30:27.698Z,2.00
2019-02-04T22:32:57.034Z,2.00
2019-02-04T22:35:25.978Z,1.90
2019-02-04T22:37:54.760Z,1.90
2019-02-04T22:40:25.510Z,2.00
2019-02-04T22:42:54.558Z,1.90
2019-02-04T22:45:23.599Z,1.90
2019-02-04T22:47:52.550Z,2.00
2019-02-04T22:50:26.290Z,2.00
2019-02-04T22:52:55.228Z,1.90
2019-02-04T22:55:31.493Z,1.90
2019-02-04T22:57:54.972Z,1.90
2019-02-04T23:00:57.340Z,1.70
2019-02-04T23:03:26.431Z,1.70
2019-02-04T23:05:55.375Z,1.60
2019-02-04T23:08:24.285Z,1.70
2019-02-04T23:10:53.246Z,1.60
2019-02-04T23:13:22.177Z,1.60
2019-02-04T23:15:54.016Z,1.60
2019-02-04T23:18:22.231Z,1.60
2019-02-04T23:20:51.096Z,1.70
2019-02-04T23:23:20.117Z,1.60
2019-02-04T23:25:49.000Z,1.60
2019-02-04T23:28:18.151Z,1.60
2019-02-04T23:30:47.236Z,1.60
2019-02-04T23:33:16.021Z,1.60
2019-02-04T23:35:44.879Z,1.60
2019-02-04T23:38:13.682Z,1.60
2019-02-04T23:40:42.642Z,1.60
2019-02-04T23:43:11.496Z,1.60
2019-02-04T23:45:40.648Z,1.60
2019-02-04T23:48:09.847Z,1.60
2019-02-04T23:50:38.808Z,1.60
2019-02-04T23:53:07.916Z,1.60
2019-02-04T23:55:36.708Z,1.60
2019-02-04T23:58:05.647Z,1.60
